Time;durP1;ratioP1;P1;durP2;ratioP2;P2;SDS_P1;SDS_P2;PMS_P1;PMS_P2;Temp;Humidity;BMP_temperature;BMP_pressure;BME280_temperature;BME280_humidity;BME280_pressure;Samples;Min_cycle;Max_cycle;Signal;HPM_P1;HPM_P2
2023/10/13 00:01:54;;;;;;;19.92;5.82;;;;;;;-146.27;92.03;81709.28;5023669;28;20025;-70
2023/10/13 00:04:24;;;;;;;16.50;5.97;;;;;;;-146.27;92.40;81689.19;5023668;28;20030;-70
2023/10/13 00:06:52;;;;;;;17.83;6.90;;;;;;;-146.27;92.33;81705.28;5023844;28;20029;-70
2023/10/13 00:09:19;;;;;;;20.98;8.68;;;;;;;-146.27;92.75;81707.28;5026236;28;20056;-70
2023/10/13 00:11:44;;;;;;;16.52;9.05;;;;;;;-146.27;90.45;81564.69;5020463;28;20026;-70
2023/10/13 00:14:15;;;;;;;14.02;8.63;;;;;;;-146.27;90.39;81574.72;5019405;28;20371;-69
2023/10/13 00:16:42;;;;;;;20.25;8.25;;;;;;;-146.27;91.18;81647.03;5015519;28;21008;-70
2023/10/13 00:19:09;;;;;;;17.75;7.95;;;;;;;-146.27;92.53;81737.41;5025858;28;20029;-70
2023/10/13 00:21:35;;;;;;;18.35;8.73;;;;;;;-146.27;92.53;81715.31;5024091;28;20033;-69
2023/10/13 00:24:01;;;;;;;16.67;8.40;;;;;;;-146.27;92.51;81717.31;5025630;28;20032;-69
2023/10/13 00:26:28;;;;;;;17.17;8.93;;;;;;;-146.27;92.60;81677.16;5021565;28;20025;-69
2023/10/13 00:29:01;;;;;;;17.55;8.20;;;;;;;-146.27;93.14;81757.50;5025277;28;20041;-70
2023/10/13 00:31:32;;;;;;;16.63;7.82;;;;;;;-146.27;92.81;81741.41;5023945;28;20025;-69
2023/10/13 00:34:01;;;;;;;14.77;8.32;;;;;;;-146.27;92.42;81713.31;5019404;28;20025;-69
2023/10/13 00:36:26;;;;;;;18.70;9.13;;;;;;;-146.27;92.82;81729.38;5023766;28;20025;-70
2023/10/13 00:38:52;;;;;;;19.77;10.02;;;;;;;-146.27;93.06;81745.44;5025874;28;20395;-70
2023/10/13 00:41:33;;;;;;;21.40;10.82;;;;;;;-146.27;92.83;81733.38;5020758;28;20643;-70
2023/10/13 00:44:08;;;;;;;20.90;12.43;;;;;;;-146.27;93.25;81781.59;5020474;28;20038;-70
2023/10/13 00:46:35;;;;;;;21.92;13.00;;;;;;;-146.27;94.00;81789.63;5021506;28;20148;-70
2023/10/13 00:49:06;;;;;;;34.63;14.50;;;;;;;-146.27;93.63;81773.56;5017438;28;20585;-71
2023/10/13 00:51:34;;;;;;;26.55;13.48;;;;;;;-146.27;94.78;81892.06;5026405;28;20037;-70
2023/10/13 00:54:13;;;;;;;33.00;15.15;;;;;;;-146.27;94.13;81793.66;5024796;28;20026;-70
2023/10/13 00:56:46;;;;;;;27.88;15.13;;;;;;;-146.27;93.98;81763.50;5018210;28;20022;-70
2023/10/13 00:59:14;;;;;;;28.50;15.30;;;;;;;-146.27;93.46;81741.41;5025612;28;20453;-70
2023/10/13 01:01:42;;;;;;;28.55;16.23;;;;;;;-146.27;93.01;81729.38;5019677;28;20478;-71
2023/10/13 01:04:11;;;;;;;34.97;16.63;;;;;;;-146.27;93.42;81741.41;5024289;28;20047;-71
2023/10/13 01:06:37;;;;;;;31.42;15.77;;;;;;;-146.27;93.27;81755.47;5021898;28;21433;-70
2023/10/13 01:09:14;;;;;;;32.47;15.85;;;;;;;-146.27;93.36;81769.53;5024812;28;20022;-71
2023/10/13 01:11:42;;;;;;;29.13;16.27;;;;;;;-146.27;94.00;81759.50;5015670;28;20032;-70
2023/10/13 01:14:12;;;;;;;33.42;17.05;;;;;;;-146.27;94.00;81823.78;5018609;28;20029;-70
2023/10/13 01:16:43;;;;;;;29.55;16.48;;;;;;;-146.27;93.49;81777.56;5016907;28;20397;-70
2023/10/13 01:19:24;;;;;;;28.90;16.30;;;;;;;-146.27;93.14;81721.34;5024114;28;20021;-70
2023/10/13 01:21:56;;;;;;;28.40;15.38;;;;;;;-146.27;93.29;81773.56;5021754;28;20053;-70
2023/10/13 01:24:24;;;;;;;29.38;15.40;;;;;;;-146.27;93.18;81715.31;5025262;28;20100;-69
2023/10/13 01:26:51;;;;;;;35.72;15.68;;;;;;;-146.27;93.44;81749.47;5025590;28;20037;-70
2023/10/13 01:29:18;;;;;;;27.08;14.05;;;;;;;-146.27;92.90;81711.28;5025298;28;20096;-70
2023/10/13 01:31:46;;;;;;;25.73;12.20;;;;;;;-146.27;93.50;81787.63;5023696;28;20061;-70
2023/10/13 01:34:23;;;;;;;25.33;12.57;;;;;;;-146.27;94.13;81819.75;5024181;28;20037;-71
2023/10/13 01:36:53;;;;;;;22.98;11.45;;;;;;;-146.27;93.15;81733.38;5017553;28;20032;-70
2023/10/13 01:39:21;;;;;;;24.02;10.98;;;;;;;-146.27;92.95;81765.53;5023919;28;20516;-70
2023/10/13 01:41:53;;;;;;;24.92;11.68;;;;;;;-146.27;93.44;81781.59;5031413;28;20100;-70
2023/10/13 01:44:19;;;;;;;24.53;11.47;;;;;;;-146.27;93.25;81757.50;5024502;28;20362;-70
2023/10/13 01:46:45;;;;;;;27.15;11.63;;;;;;;-146.27;92.74;81705.28;5024546;28;20382;-70
2023/10/13 01:49:11;;;;;;;19.63;11.27;;;;;;;-146.27;92.95;81777.56;5022820;28;20108;-70
2023/10/13 01:51:39;;;;;;;27.35;11.95;;;;;;;-146.27;93.25;81781.59;5028408;28;20027;-70
2023/10/13 01:54:05;;;;;;;26.35;11.27;;;;;;;-146.27;93.65;81779.59;5015340;28;20103;-70
2023/10/13 01:56:31;;;;;;;22.45;12.07;;;;;;;-146.27;94.38;81876.00;5027613;28;20033;-71
2023/10/13 01:58:57;;;;;;;23.35;11.13;;;;;;;-146.27;93.24;81779.59;5022586;28;20033;-70
2023/10/13 02:01:29;;;;;;;22.58;12.10;;;;;;;-146.27;94.05;81819.75;5027561;28;20033;-70
2023/10/13 02:04:03;;;;;;;23.58;12.02;;;;;;;-146.27;93.80;81823.78;5029639;28;20113;-70
2023/10/13 02:06:32;;;;;;;19.60;11.57;;;;;;;-146.27;93.81;81805.69;5026343;28;20040;-70
2023/10/13 02:09:10;;;;;;;23.17;12.73;;;;;;;-146.27;93.98;81839.84;5022448;28;20052;-71
2023/10/13 02:11:40;;;;;;;21.27;12.57;;;;;;;-146.27;94.04;81841.84;5030349;28;20489;-70
2023/10/13 02:14:05;;;;;;;20.20;11.63;;;;;;;-146.27;93.62;81837.81;5030255;28;20033;-70
2023/10/13 02:16:31;;;;;;;18.95;11.55;;;;;;;-146.27;92.79;81733.38;5021566;28;20046;-70
2023/10/13 02:19:04;;;;;;;24.30;13.13;;;;;;;-146.27;93.11;81745.44;5022218;28;20037;-69
2023/10/13 02:21:31;;;;;;;18.17;10.50;;;;;;;-146.27;92.44;81719.31;5021477;28;20521;-69
2023/10/13 02:24:00;;;;;;;19.60;10.70;;;;;;;-146.27;92.92;81775.56;5022031;28;20088;-71
2023/10/13 02:26:38;;;;;;;19.73;11.38;;;;;;;-146.27;93.13;81779.59;5021871;28;20101;-70
2023/10/13 02:29:07;;;;;;;18.60;11.50;;;;;;;-146.27;93.54;81825.78;5023340;28;20030;-68
2023/10/13 02:31:35;;;;;;;26.55;11.60;;;;;;;-146.27;93.26;81821.75;5025238;28;20029;-70
2023/10/13 02:34:05;;;;;;;24.10;12.98;;;;;;;-146.27;92.66;81743.44;5018666;28;20026;-71
2023/10/13 02:36:43;;;;;;;19.88;12.15;;;;;;;-146.27;92.43;81773.56;5012839;28;20117;-70
2023/10/13 02:39:09;;;;;;;19.58;12.27;;;;;;;-146.27;93.00;81793.66;5021681;28;20113;-70
2023/10/13 02:41:38;;;;;;;20.58;12.25;;;;;;;-146.27;92.42;81749.47;5032096;28;20474;-70
2023/10/13 02:44:10;;;;;;;18.60;11.23;;;;;;;-146.27;90.14;81606.84;5027065;28;20055;-70
2023/10/13 02:46:36;;;;;;;20.30;11.90;;;;;;;-146.27;88.51;81518.50;5025238;28;20414;-70
2023/10/13 02:49:11;;;;;;;22.30;11.82;;;;;;;-146.27;90.77;81707.28;5030313;28;20025;-70
2023/10/13 02:51:37;;;;;;;22.35;12.68;;;;;;;-146.27;91.60;81711.28;5030647;28;20116;-70
2023/10/13 02:54:10;;;;;;;21.55;12.38;;;;;;;-146.27;91.77;81721.34;5028207;28;20200;-70
2023/10/13 02:56:36;;;;;;;23.20;11.70;;;;;;;-146.27;92.04;81741.41;5025993;28;20590;-69
2023/10/13 02:59:05;;;;;;;21.88;11.25;;;;;;;-146.27;91.89;81741.41;5025080;28;20100;-69
2023/10/13 03:01:35;;;;;;;25.90;12.45;;;;;;;-146.27;92.15;81777.56;5025176;28;20037;-70
2023/10/13 03:04:08;;;;;;;22.67;12.05;;;;;;;-146.27;92.50;81801.69;5029956;28;20028;-70
2023/10/13 03:06:35;;;;;;;23.80;11.57;;;;;;;-146.27;92.53;81757.50;5021608;28;20032;-70
2023/10/13 03:09:19;;;;;;;19.83;10.80;;;;;;;-146.27;92.72;81771.53;5019291;28;20575;-70
2023/10/13 03:11:48;;;;;;;24.52;11.93;;;;;;;-146.27;92.76;81755.47;5029690;28;20037;-70
2023/10/13 03:14:25;;;;;;;26.33;11.45;;;;;;;-146.27;92.77;81749.47;5020999;28;20033;-69
2023/10/13 03:16:52;;;;;;;24.10;9.63;;;;;;;-146.27;92.87;81785.59;5019755;28;20397;-69
2023/10/13 03:19:21;;;;;;;16.55;9.32;;;;;;;-146.27;89.96;81657.06;5016454;28;20065;-69
2023/10/13 03:21:57;;;;;;;18.33;9.27;;;;;;;-146.27;89.21;81576.72;5014273;28;20034;-69
2023/10/13 03:24:33;;;;;;;14.80;8.27;;;;;;;-146.27;88.32;81544.59;5030884;28;20030;-69
2023/10/13 03:26:59;;;;;;;16.90;7.93;;;;;;;-146.27;88.09;81550.63;5031608;28;20029;-68
2023/10/13 03:29:30;;;;;;;15.82;7.60;;;;;;;-146.27;89.64;81685.19;5028011;28;20040;-67
2023/10/13 03:32:06;;;;;;;16.20;7.85;;;;;;;-146.27;92.09;81799.66;5019781;28;20037;-68
2023/10/13 03:34:32;;;;;;;16.75;7.32;;;;;;;-146.27;92.52;81801.69;5020661;28;20120;-67
2023/10/13 03:36:58;;;;;;;16.13;7.07;;;;;;;-146.27;92.54;81763.50;5015156;28;20683;-67
2023/10/13 03:39:30;;;;;;;14.10;5.90;;;;;;;-146.27;93.38;81845.88;5030643;28;20539;-68
2023/10/13 03:41:57;;;;;;;16.00;6.18;;;;;;;-146.27;93.17;81803.69;5026855;28;20026;-67
2023/10/13 03:44:23;;;;;;;9.93;4.90;;;;;;;-146.27;93.18;81845.88;5031122;28;20370;-67
2023/10/13 03:46:48;;;;;;;9.85;4.72;;;;;;;-146.27;92.96;81821.75;5021318;28;20041;-68
2023/10/13 03:49:21;;;;;;;14.80;5.13;;;;;;;-146.27;93.19;81853.91;5024670;28;20385;-67
2023/10/13 03:51:50;;;;;;;8.95;4.30;;;;;;;-146.27;93.72;81871.97;5028233;28;20028;-67
2023/10/13 03:54:16;;;;;;;10.60;4.50;;;;;;;-146.27;91.96;81791.63;5030442;28;20018;-67
2023/10/13 03:56:44;;;;;;;10.32;5.30;;;;;;;-146.27;90.54;81731.38;5026975;28;20037;-67
2023/10/13 03:59:18;;;;;;;11.77;5.07;;;;;;;-146.27;89.63;81653.06;5029067;28;20041;-67
2023/10/13 04:02:02;;;;;;;11.75;5.78;;;;;;;-146.27;88.64;81588.78;5026067;28;20021;-67
2023/10/13 04:17:40;;;;;;;11.60;5.47;;;;;;;-146.27;92.87;81813.72;5022915;28;19948;-67
2023/10/13 04:30:57;;;;;;;12.77;7.80;;;;;;;-146.27;96.45;81896.06;5026008;28;20042;-67
2023/10/13 04:39:09;;;;;;;15.90;9.48;;;;;;;-146.27;91.37;81532.53;5015769;28;20026;-69
2023/10/13 04:47:09;;;;;;;15.68;8.02;;;;;;;-146.27;95.26;81731.38;5029330;28;20045;-68
2023/10/13 05:46:48;;;;;;;13.60;4.55;;;;;;;-146.27;93.31;81990.47;5023862;28;20168;-66
2023/10/13 05:49:20;;;;;;;13.07;4.97;;;;;;;-146.27;92.43;81914.16;5032430;28;20748;-65
2023/10/13 06:28:40;;;;;;;13.43;4.57;;;;;;;-146.27;92.44;81942.28;5018469;28;20029;-65
2023/10/13 06:30:47;;;;;;;13.75;6.55;;;;;;;-146.27;93.23;81777.56;5026216;28;20051;-66
2023/10/13 06:33:12;;;;;;;21.55;7.38;;;;;;;-146.27;95.13;81849.88;5021027;28;20026;-67
2023/10/13 06:35:39;;;;;;;11.75;6.70;;;;;;;-146.27;94.18;81789.63;5021645;28;20041;-67
2023/10/13 06:38:09;;;;;;;16.13;7.50;;;;;;;-146.27;94.62;81797.66;5022383;28;20036;-67
2023/10/13 06:40:36;;;;;;;17.35;8.65;;;;;;;-146.27;94.71;81799.66;5021083;28;20420;-67
2023/10/13 06:43:17;;;;;;;19.25;8.85;;;;;;;-146.27;95.58;81783.59;5012436;28;20547;-66
2023/10/13 06:45:50;;;;;;;16.38;9.07;;;;;;;-146.27;94.72;81727.38;5025111;28;20047;-66
2023/10/13 06:48:18;;;;;;;16.48;8.70;;;;;;;-146.27;93.98;81669.13;5028037;28;20401;-66
2023/10/13 06:50:52;;;;;;;15.85;9.02;;;;;;;-146.27;94.08;81689.19;5017073;28;20029;-65
2023/10/13 06:53:21;;;;;;;22.13;10.65;;;;;;;-146.27;94.32;81719.31;5018181;28;20037;-67
2023/10/13 06:55:52;;;;;;;19.88;9.75;;;;;;;-146.27;94.91;81709.28;5026166;28;20113;-67
2023/10/13 06:58:23;;;;;;;16.83;9.32;;;;;;;-146.27;95.29;81713.31;5029924;28;20037;-66
2023/10/13 07:00:57;;;;;;;18.55;9.30;;;;;;;-146.27;94.70;81677.16;5025843;28;20033;-66
2023/10/13 07:03:24;;;;;;;19.45;9.45;;;;;;;-146.27;94.51;81669.13;5021900;28;20033;-66
2023/10/13 07:05:50;;;;;;;18.63;8.45;;;;;;;-146.27;94.65;81697.22;5028250;28;20049;-65
2023/10/13 07:08:23;;;;;;;21.17;7.90;;;;;;;-146.27;93.82;81608.88;5026243;28;20037;-65
2023/10/13 07:11:02;;;;;;;15.88;7.47;;;;;;;-146.27;93.89;81604.84;5028577;28;20029;-65
2023/10/13 07:13:36;;;;;;;22.80;7.88;;;;;;;-146.27;93.62;81588.78;5022940;28;20117;-64
2023/10/13 07:16:12;;;;;;;18.42;7.65;;;;;;;-146.27;93.87;81649.03;5022219;28;20128;-64
2023/10/13 07:18:42;;;;;;;17.77;6.40;;;;;;;-146.27;94.11;81683.19;5020398;28;20049;-65
2023/10/13 07:21:10;;;;;;;15.55;6.72;;;;;;;-146.27;93.44;81673.13;5018278;28;20453;-65
2023/10/13 07:23:37;;;;;;;19.67;6.97;;;;;;;-146.27;93.13;81641.00;5029134;28;20057;-64
2023/10/13 07:26:02;;;;;;;14.82;6.53;;;;;;;-146.27;92.38;81524.50;5028518;28;20037;-64
2023/10/13 07:28:35;;;;;;;15.27;5.95;;;;;;;-146.27;92.76;81594.81;5024901;28;20052;-65
2023/10/13 07:33:34;;;;;;;18.20;6.05;;;;;;;-146.27;92.42;81608.88;5030988;28;20030;-65
2023/10/13 07:38:49;;;;;;;14.13;5.88;;;;;;;-146.27;91.29;81552.63;5015371;28;20041;-65
2023/10/13 07:41:17;;;;;;;12.13;5.05;;;;;;;-146.27;91.15;81518.50;5021815;28;20528;-65
2023/10/13 07:43:44;;;;;;;17.40;5.57;;;;;;;-146.27;90.75;81538.56;5020375;28;20112;-65
2023/10/13 07:46:12;;;;;;;15.93;5.20;;;;;;;-146.27;90.80;81540.56;5017151;28;20157;-65
2023/10/13 07:48:38;;;;;;;16.92;5.43;;;;;;;-146.27;90.11;81552.63;5019780;28;20032;-65
2023/10/13 07:51:11;;;;;;;15.38;4.97;;;;;;;-146.27;89.52;81524.50;5028729;28;20418;-65
2023/10/13 07:53:40;;;;;;;17.23;4.95;;;;;;;-146.27;89.16;81408.03;5022942;28;20033;-65
2023/10/13 07:56:11;;;;;;;13.75;5.38;;;;;;;-146.27;88.48;81484.34;5023777;28;20128;-65
2023/10/13 07:58:52;;;;;;;15.63;4.45;;;;;;;-146.27;88.46;81508.44;5030021;28;20025;-65
2023/10/13 08:01:21;;;;;;;12.23;4.40;;;;;;;-146.27;88.43;81500.41;5019977;28;20045;-65
2023/10/13 08:03:49;;;;;;;13.25;5.07;;;;;;;-146.27;88.62;81480.31;5013965;28;20056;-64
2023/10/13 08:08:43;;;;;;;19.17;5.10;;;;;;;-146.27;87.26;81416.06;5025915;28;20041;-66
2023/10/13 08:11:11;;;;;;;13.20;4.47;;;;;;;-146.27;87.24;81373.88;5013068;28;20034;-66
2023/10/13 08:13:46;;;;;;;13.82;4.90;;;;;;;-146.27;87.25;81367.88;5018539;28;20079;-67
2023/10/13 08:16:20;;;;;;;17.77;4.63;;;;;;;-146.27;87.29;81440.16;5025829;28;20069;-68
2023/10/13 08:18:49;;;;;;;16.42;5.32;;;;;;;-146.27;86.97;81381.91;5022867;28;20044;-67
2023/10/13 08:21:25;;;;;;;16.08;4.75;;;;;;;-146.27;86.83;81387.94;5016200;28;20390;-67
2023/10/13 08:26:29;;;;;;;11.40;4.65;;;;;;;-146.27;85.97;81379.91;5011450;28;20034;-67
2023/10/13 08:28:56;;;;;;;16.90;5.25;;;;;;;-146.27;85.50;81275.47;5022966;28;20035;-67
2023/10/13 08:31:22;;;;;;;13.65;4.57;;;;;;;-146.27;85.86;81478.31;5019774;28;20026;-67
2023/10/13 08:33:48;;;;;;;14.63;4.47;;;;;;;-146.27;85.47;81389.94;5013512;28;20021;-67
2023/10/13 08:36:30;;;;;;;15.10;5.38;;;;;;;-146.27;85.40;81351.78;5025514;28;20033;-67
2023/10/13 08:38:56;;;;;;;16.92;5.25;;;;;;;-146.27;85.04;81345.78;5022845;28;20358;-66
2023/10/13 08:43:53;;;;;;;11.63;4.53;;;;;;;-146.27;84.45;81347.78;5019452;28;20040;-67
2023/10/13 08:46:27;;;;;;;16.63;4.53;;;;;;;-146.27;84.16;81259.41;5024743;28;20106;-66
2023/10/13 08:49:14;;;;;;;16.20;4.53;;;;;;;-146.27;83.88;81307.63;5027571;28;20071;-68
2023/10/13 08:51:44;;;;;;;16.17;5.15;;;;;;;-146.27;83.96;81307.63;5010859;28;20064;-68
2023/10/13 08:55:04;;;;;;;16.15;4.30;;;;;;;-146.27;83.47;81387.94;5025605;28;20037;-68
2023/10/13 08:57:19;;;;;;;23.55;4.68;;;;;;;-146.27;82.89;81281.50;5024855;28;20534;-68
2023/10/13 08:59:53;;;;;;;18.83;5.35;;;;;;;-146.27;82.41;81313.63;5028455;28;20033;-69
2023/10/13 09:02:22;;;;;;;18.27;5.72;;;;;;;-146.27;81.89;81271.47;5023299;28;20493;-67
2023/10/13 09:04:59;;;;;;;17.05;3.58;;;;;;;-146.27;81.52;81217.25;5025178;28;20022;-69
2023/10/13 09:07:25;;;;;;;13.25;4.10;;;;;;;-146.27;81.24;81215.22;5016413;28;20434;-69
2023/10/13 09:18:13;;;;;;;15.90;5.10;;;;;;;-146.27;81.11;81253.38;5021265;28;20034;-69
2023/10/13 09:23:12;;;;;;;12.68;4.10;;;;;;;-146.27;80.60;81150.97;5017707;28;20028;-69
2023/10/13 09:25:53;;;;;;;13.52;4.43;;;;;;;-146.27;81.33;81203.19;5023228;28;20025;-69
2023/10/13 09:28:22;;;;;;;12.20;4.32;;;;;;;-146.27;80.89;81179.09;5016459;28;20021;-69
2023/10/13 09:30:58;;;;;;;18.02;4.32;;;;;;;-146.27;80.81;81235.31;5023773;28;20393;-69
2023/10/13 09:33:39;;;;;;;12.55;4.03;;;;;;;-146.27;80.13;81146.97;5020518;28;20013;-69
2023/10/13 09:36:13;;;;;;;19.27;4.13;;;;;;;-146.27;79.72;81086.72;5010183;28;20061;-69
2023/10/13 09:38:42;;;;;;;16.65;4.22;;;;;;;-146.27;79.87;81074.66;5020434;28;20021;-69
2023/10/13 09:41:25;;;;;;;18.15;4.78;;;;;;;-146.27;80.14;81165.03;5027681;28;20063;-69
2023/10/13 09:43:51;;;;;;;17.77;4.07;;;;;;;-146.27;79.60;81058.59;5027319;28;20022;-70
2023/10/13 09:46:23;;;;;;;10.85;3.75;;;;;;;-146.27;79.31;81130.88;5020990;28;20038;-69
2023/10/13 09:48:52;;;;;;;21.98;4.85;;;;;;;-146.27;79.33;81072.66;5025121;28;20026;-69
2023/10/13 09:51:21;;;;;;;12.55;4.18;;;;;;;-146.27;78.35;81034.50;5009251;28;20041;-69
2023/10/13 09:54:38;;;;;;;18.58;4.20;;;;;;;-146.27;78.03;81032.50;5017339;28;20052;-69
2023/10/13 09:57:16;;;;;;;15.68;4.82;;;;;;;-146.27;77.93;81026.47;5019144;28;20052;-70
2023/10/13 10:00:07;;;;;;;18.50;4.40;;;;;;;-146.27;77.48;80942.13;5017880;28;20034;-69
2023/10/13 10:02:35;;;;;;;19.13;4.47;;;;;;;-146.27;77.57;80996.34;5023966;28;20033;-69
2023/10/13 10:05:20;;;;;;;17.52;4.75;;;;;;;-146.27;77.76;80964.22;5029901;28;20036;-69
2023/10/13 10:07:56;;;;;;;24.70;5.38;;;;;;;-146.27;77.25;80930.06;5014020;28;20033;-69
2023/10/13 10:10:25;;;;;;;24.45;6.10;;;;;;;-146.27;76.76;80950.16;5027715;28;20022;-69
2023/10/13 10:13:16;;;;;;;19.02;4.88;;;;;;;-146.27;76.64;80893.94;5030504;28;20037;-68
2023/10/13 10:15:44;;;;;;;15.38;4.80;;;;;;;-146.27;73.73;80620.84;5023657;28;20042;-69
2023/10/13 10:18:27;;;;;;;11.48;4.82;;;;;;;-146.27;71.88;80456.19;5016977;28;20397;-69
2023/10/13 10:21:07;;;;;;;22.23;4.53;;;;;;;-146.27;70.09;80299.59;5037322;28;20037;-68
2023/10/13 10:23:36;;;;;;;14.20;4.28;;;;;;;-146.27;70.32;80371.88;5020391;28;20613;-69
2023/10/13 10:26:16;;;;;;;18.48;5.40;;;;;;;-146.27;70.56;80426.09;5017911;28;20049;-69
2023/10/13 10:28:43;;;;;;;17.52;4.55;;;;;;;-146.27;70.28;80536.50;5041606;28;20033;-70
2023/10/13 10:31:19;;;;;;;17.70;4.57;;;;;;;-146.27;70.31;80468.25;5025967;28;20104;-68
2023/10/13 10:33:50;;;;;;;16.48;4.57;;;;;;;-146.27;69.28;80397.97;5014649;28;20026;-70
2023/10/13 10:36:17;;;;;;;14.02;5.05;;;;;;;-146.27;70.09;80532.50;5015471;28;20104;-69
2023/10/13 10:38:58;;;;;;;14.05;5.40;;;;;;;-146.27;69.64;80351.78;5018929;28;20037;-68
2023/10/13 10:41:44;;;;;;;18.30;5.25;;;;;;;-146.27;73.01;80737.31;5035857;28;20083;-69
2023/10/13 10:44:23;;;;;;;19.08;5.50;;;;;;;-146.27;71.61;80592.72;5018601;28;20022;-69
2023/10/13 10:46:57;;;;;;;17.48;5.18;;;;;;;-146.27;70.96;80518.44;5017786;28;20331;-69
2023/10/13 10:49:29;;;;;;;13.80;4.22;;;;;;;-146.27;70.78;80534.50;5017177;28;20029;-69
2023/10/13 10:52:04;;;;;;;21.05;4.75;;;;;;;-146.27;70.90;80546.56;5025328;28;20025;-70
2023/10/13 10:54:31;;;;;;;16.33;5.80;;;;;;;-146.27;70.48;80484.31;5042214;28;20108;-69
2023/10/13 10:57:13;;;;;;;12.75;4.43;;;;;;;-146.27;70.69;80598.75;5014578;28;20072;-69
2023/10/13 10:59:39;;;;;;;20.75;5.40;;;;;;;-146.27;70.59;80588.72;5020423;28;20084;-70
2023/10/13 11:02:07;;;;;;;20.08;5.28;;;;;;;-146.27;69.65;80406.00;5015227;28;20090;-70
2023/10/13 11:04:40;;;;;;;13.88;4.90;;;;;;;-146.27;70.60;80560.59;5019697;28;20048;-70
2023/10/13 11:07:06;;;;;;;16.65;4.47;;;;;;;-146.27;72.46;80765.41;5018318;28;20025;-70
2023/10/13 11:09:37;;;;;;;13.52;4.43;;;;;;;-146.27;72.42;80721.25;5016631;28;20068;-70
2023/10/13 11:12:26;;;;;;;16.15;4.80;;;;;;;-146.27;70.28;80506.41;5018148;28;20026;-70
2023/10/13 11:15:17;;;;;;;14.43;5.05;;;;;;;-146.27;70.27;80592.72;5023983;28;20048;-69
2023/10/13 11:17:51;;;;;;;13.90;4.85;;;;;;;-146.27;68.83;80365.84;5030844;28;20078;-70
2023/10/13 11:20:25;;;;;;;13.23;5.00;;;;;;;-146.27;68.19;80468.25;5017163;28;20064;-70
2023/10/13 11:22:52;;;;;;;16.13;4.53;;;;;;;-146.27;69.00;80476.28;5018884;28;20389;-70
2023/10/13 11:25:30;;;;;;;17.38;4.85;;;;;;;-146.27;67.53;80387.94;5024618;28;20059;-70
2023/10/13 11:27:58;;;;;;;16.27;4.95;;;;;;;-146.27;69.14;80693.13;5023764;28;20666;-69
2023/10/13 11:30:25;;;;;;;21.60;4.95;;;;;;;-146.27;69.12;80612.81;5029204;28;20025;-69
2023/10/13 11:33:10;;;;;;;14.18;5.00;;;;;;;-146.27;68.80;80677.06;5022594;28;20037;-71
2023/10/13 11:35:55;;;;;;;21.27;5.28;;;;;;;-146.27;68.25;80769.44;5019407;28;20029;-70
2023/10/13 11:38:29;;;;;;;12.27;5.22;;;;;;;-146.27;67.76;80600.75;5021817;28;20028;-67
2023/10/13 11:46:16;;;;;;;13.18;4.43;;;;;;;-146.27;64.13;80211.25;5020934;28;20109;-67
2023/10/13 11:48:54;;;;;;;14.00;4.75;;;;;;;-146.27;64.04;80307.63;5029131;28;20043;-67
2023/10/13 11:51:32;;;;;;;14.77;4.88;;;;;;;-146.27;63.01;80259.44;5023352;28;20072;-66
2023/10/13 11:54:00;;;;;;;18.92;5.22;;;;;;;-146.27;63.31;80219.28;5028697;28;20036;-67
2023/10/13 11:56:25;;;;;;;23.20;5.28;;;;;;;-146.27;63.85;80351.78;5030445;28;20036;-67
2023/10/13 11:58:51;;;;;;;21.90;5.28;;;;;;;-146.27;64.21;80321.69;5016823;28;20112;-67
2023/10/13 12:11:50;;;;;;;25.23;6.35;;;;;;;-146.27;67.18;80596.75;5032027;28;20068;-67
2023/10/13 12:14:17;;;;;;;24.50;5.43;;;;;;;-146.27;66.15;80440.13;5030650;28;20037;-68
2023/10/13 12:16:53;;;;;;;18.88;4.47;;;;;;;-146.27;64.26;80299.59;5023416;28;20378;-67
2023/10/13 12:19:26;;;;;;;21.05;4.88;;;;;;;-146.27;63.87;80273.50;5023572;28;20473;-68
2023/10/13 12:21:55;;;;;;;15.13;5.03;;;;;;;-146.27;63.65;80257.44;5027317;28;20435;-70
2023/10/13 12:24:30;;;;;;;19.20;5.57;;;;;;;-146.27;63.81;80281.53;5022753;28;20030;-67
2023/10/13 12:26:56;;;;;;;17.92;4.60;;;;;;;-146.27;63.46;80395.97;5017201;28;20481;-67
2023/10/13 12:29:28;;;;;;;17.10;5.30;;;;;;;-146.27;62.59;80267.47;5018780;28;20030;-68
2023/10/13 12:32:08;;;;;;;21.17;5.32;;;;;;;-146.27;63.47;80375.88;5025669;28;20052;-67
2023/10/13 12:37:49;;;;;;;16.58;5.45;;;;;;;-146.27;68.77;80624.88;5025262;28;20044;-67
2023/10/13 12:51:40;;;;;;;20.73;4.93;;;;;;;-146.27;71.72;80757.38;5012551;28;20122;-71
2023/10/13 12:54:14;;;;;;;14.90;6.28;;;;;;;-146.27;73.81;80903.97;5028718;28;20404;-71
2023/10/13 12:56:42;;;;;;;16.98;5.30;;;;;;;-146.27;74.05;80910.00;5011586;28;20520;-70
2023/10/13 12:59:13;;;;;;;17.25;4.88;;;;;;;-146.27;74.81;80875.84;5023192;28;20091;-71
2023/10/13 13:01:42;;;;;;;17.65;5.32;;;;;;;-146.27;74.85;80930.06;5025094;28;20022;-70
2023/10/13 13:04:18;;;;;;;21.17;5.72;;;;;;;-146.27;74.51;80891.94;5018014;28;20030;-70
2023/10/13 13:06:43;;;;;;;14.88;4.88;;;;;;;-146.27;73.79;80751.38;5018872;28;20509;-71
2023/10/13 13:09:09;;;;;;;18.65;5.32;;;;;;;-146.27;73.95;80849.75;5014161;28;20048;-71
2023/10/13 13:11:39;;;;;;;13.10;4.68;;;;;;;-146.27;74.36;80918.03;5025855;28;20048;-71
2023/10/13 13:14:08;;;;;;;16.65;5.35;;;;;;;-146.27;71.36;80610.81;5025318;28;20041;-72
2023/10/13 13:16:35;;;;;;;15.30;5.22;;;;;;;-146.27;69.98;80369.88;5018985;28;20064;-73
2023/10/13 13:19:09;;;;;;;17.35;5.43;;;;;;;-146.27;69.90;80359.81;5019736;28;20121;-72
2023/10/13 13:21:37;;;;;;;15.70;5.43;;;;;;;-146.27;69.17;80428.09;5015733;28;20025;-72
2023/10/13 13:24:04;;;;;;;17.70;5.00;;;;;;;-146.27;68.95;80339.75;5016986;28;20030;-73
2023/10/13 13:26:31;;;;;;;13.38;5.15;;;;;;;-146.27;68.55;80279.50;5016823;28;20122;-72
2023/10/13 13:28:56;;;;;;;15.15;4.78;;;;;;;-146.27;68.81;80365.84;5015132;28;20040;-73
2023/10/13 13:31:26;;;;;;;22.35;5.53;;;;;;;-146.27;68.41;80283.53;5014060;28;20100;-73
2023/10/13 13:33:52;;;;;;;15.35;5.68;;;;;;;-146.27;69.06;80363.84;5028885;28;20675;-72
2023/10/13 13:36:19;;;;;;;14.98;5.13;;;;;;;-146.27;68.84;80323.69;5019513;28;20030;-72
2023/10/13 13:38:46;;;;;;;9.90;5.55;;;;;;;-146.27;69.75;80458.22;5023298;28;20029;-72
2023/10/13 13:41:16;;;;;;;17.77;5.03;;;;;;;-146.27;69.72;80333.72;5024287;28;20113;-72
2023/10/13 13:46:18;;;;;;;;;;;;;;;-146.27;69.24;80339.75;5025041;28;20615;-72
2023/10/13 13:48:47;;;;;;;17.80;7.03;;;;;;;-146.27;71.45;80548.56;5020654;28;19913;-73
2023/10/13 13:51:19;;;;;;;17.42;6.20;;;;;;;-146.27;73.39;80536.50;5025022;28;20029;-72
2023/10/13 13:53:47;;;;;;;17.48;5.93;;;;;;;-146.27;74.94;80636.91;5015014;28;20036;-73
2023/10/13 13:56:18;;;;;;;15.93;6.32;;;;;;;-146.27;77.81;80765.41;5014445;28;20034;-77
2023/10/13 13:58:48;;;;;;;26.20;6.82;;;;;;;-146.27;81.49;81056.59;5034261;28;20029;-68
2023/10/13 14:01:25;;;;;;;18.65;6.47;;;;;;;-146.27;86.62;81317.66;5038640;28;20029;-68
2023/10/13 14:03:51;;;;;;;20.17;6.75;;;;;;;-146.27;87.67;81339.75;5032677;28;20029;-68
2023/10/13 14:06:24;;;;;;;20.00;6.22;;;;;;;-146.27;89.66;81412.03;5018864;28;20029;-68
2023/10/13 14:08:55;;;;;;;26.13;7.15;;;;;;;-146.27;89.99;81416.06;5026838;28;20097;-68
2023/10/13 14:14:13;;;;;;;20.52;7.70;;;;;;;-146.27;92.53;81510.44;5033305;28;20037;-68
2023/10/13 14:16:46;;;;;;;23.00;8.23;;;;;;;-146.27;92.32;81488.38;5028234;28;20044;-68
2023/10/13 14:19:12;;;;;;;;;;;;;;;-146.27;93.30;81558.66;5027637;28;20370;-69
2023/10/13 14:21:38;;;;;;;21.67;5.45;;;;;;;-146.27;93.75;81598.81;5031585;28;19967;-68
2023/10/13 14:24:13;;;;;;;15.77;5.13;;;;;;;-146.27;94.54;81620.91;5027698;28;20102;-68
2023/10/13 14:26:39;;;;;;;14.43;3.83;;;;;;;-146.27;94.30;81568.69;5016977;28;20096;-69
2023/10/13 14:29:14;;;;;;;14.23;4.13;;;;;;;-146.27;94.83;81612.88;5039692;28;20029;-68
2023/10/13 14:31:39;;;;;;;18.15;3.58;;;;;;;-146.27;93.65;81550.63;5045224;28;20029;-68
2023/10/13 14:34:06;;;;;;;14.70;3.15;;;;;;;-146.27;94.13;81576.72;5031453;28;20041;-68